createdAt,value
2023-02-04T00:00:09.966Z,14.47
2023-02-04T00:02:38.319Z,12.63
2023-02-04T00:05:05.309Z,11.40
2023-02-04T00:07:32.069Z,10.40
2023-02-04T00:09:58.953Z,15.13
2023-02-04T00:12:25.836Z,12.57
2023-02-04T00:14:52.545Z,13.83
2023-02-04T00:17:19.264Z,10.73
2023-02-04T00:19:46.057Z,14.57
2023-02-04T00:22:12.811Z,10.63
2023-02-04T00:24:39.529Z,12.13
2023-02-04T00:27:07.161Z,9.90
2023-02-04T00:29:34.001Z,15.43
2023-02-04T00:32:01.066Z,12.87
2023-02-04T00:34:27.886Z,13.30
2023-02-04T00:36:54.589Z,11.27
2023-02-04T00:39:21.398Z,15.87
2023-02-04T00:41:48.188Z,10.83
2023-02-04T00:44:15.038Z,9.67
2023-02-04T00:46:42.960Z,14.60
2023-02-04T00:49:10.818Z,11.93
2023-02-04T00:51:41.175Z,9.10
2023-02-04T00:54:08.068Z,10.63
2023-02-04T00:56:35.185Z,16.27
2023-02-04T00:59:02.356Z,14.03
2023-02-04T01:01:29.488Z,21.50
2023-02-04T01:03:56.353Z,13.27
2023-02-04T01:06:23.317Z,10.20
2023-02-04T01:08:50.085Z,12.23
2023-02-04T01:11:17.256Z,17.13
2023-02-04T01:13:44.176Z,14.30
2023-02-04T01:16:11.159Z,11.03
2023-02-04T01:18:38.707Z,14.83
2023-02-04T01:21:05.849Z,16.80
2023-02-04T01:23:32.770Z,11.03
2023-02-04T01:25:59.542Z,17.10
2023-02-04T01:28:26.230Z,14.40
2023-02-04T01:30:52.998Z,23.90
2023-02-04T01:33:19.870Z,15.17
2023-02-04T01:35:46.642Z,17.00
2023-02-04T01:38:13.391Z,15.07
2023-02-04T01:40:40.916Z,11.50
2023-02-04T01:43:08.122Z,17.57
2023-02-04T01:45:35.719Z,11.80
2023-02-04T01:48:05.226Z,15.77
2023-02-04T01:50:32.778Z,13.10
2023-02-04T01:53:00.557Z,13.90
2023-02-04T01:55:31.265Z,15.30
2023-02-04T01:57:59.020Z,16.90
2023-02-04T02:00:36.606Z,22.60
2023-02-04T02:03:05.003Z,15.93
2023-02-04T02:05:51.919Z,17.83
2023-02-04T02:08:19.437Z,9.93
2023-02-04T02:10:49.473Z,19.77
2023-02-04T02:13:19.017Z,17.93
2023-02-04T02:15:47.545Z,18.53
2023-02-04T02:18:15.137Z,20.93
2023-02-04T02:20:44.251Z,16.70
2023-02-04T02:23:45.160Z,17.00
2023-02-04T02:26:12.922Z,19.80
2023-02-04T02:28:39.786Z,13.03
2023-02-04T02:31:07.060Z,17.13
2023-02-04T02:33:34.281Z,14.73
2023-02-04T02:36:01.350Z,24.70
2023-02-04T02:38:28.105Z,18.57
2023-02-04T02:40:55.956Z,15.90
2023-02-04T02:43:25.720Z,18.27
2023-02-04T02:45:53.062Z,22.67
2023-02-04T02:48:20.017Z,16.20
2023-02-04T02:50:48.142Z,11.47
2023-02-04T02:53:19.903Z,23.00
2023-02-04T02:55:47.287Z,13.87
2023-02-04T02:58:28.027Z,15.60
2023-02-04T03:00:55.688Z,14.47
2023-02-04T03:03:28.971Z,15.50
2023-02-04T03:05:59.962Z,15.67
2023-02-04T03:08:28.391Z,19.03
2023-02-04T03:10:55.125Z,17.43
2023-02-04T03:13:22.512Z,15.10
2023-02-04T03:15:49.488Z,19.10
2023-02-04T03:18:20.021Z,14.37
2023-02-04T03:20:49.862Z,14.47
2023-02-04T03:23:16.798Z,15.80
2023-02-04T03:25:43.929Z,19.30
2023-02-04T03:28:10.937Z,13.23
2023-02-04T03:30:37.703Z,15.07
2023-02-04T03:33:04.655Z,15.57
2023-02-04T03:35:31.357Z,16.00
2023-02-04T03:37:58.098Z,16.67
2023-02-04T03:40:24.771Z,16.97
2023-02-04T03:42:51.534Z,16.23
2023-02-04T03:45:18.316Z,23.13
2023-02-04T03:47:45.125Z,12.87
2023-02-04T03:50:13.886Z,21.67
2023-02-04T03:52:40.674Z,19.17
2023-02-04T03:55:07.631Z,14.77
2023-02-04T03:57:34.425Z,20.37
2023-02-04T04:00:01.168Z,22.30
2023-02-04T04:02:28.218Z,15.53
2023-02-04T04:04:54.945Z,12.60
2023-02-04T04:07:21.742Z,15.07
2023-02-04T04:09:48.466Z,20.97
2023-02-04T04:12:15.204Z,16.27
2023-02-04T04:14:41.932Z,17.07
2023-02-04T04:17:08.754Z,15.73
2023-02-04T04:19:35.577Z,16.03
2023-02-04T04:22:02.317Z,18.30
2023-02-04T04:24:29.099Z,22.40
2023-02-04T04:26:55.860Z,16.00
2023-02-04T04:29:22.638Z,17.13
2023-02-04T04:31:49.491Z,19.30
2023-02-04T04:34:16.346Z,18.63
2023-02-04T04:36:43.123Z,10.20
2023-02-04T04:39:09.864Z,6.83
2023-02-04T04:41:36.586Z,7.07
2023-02-04T04:44:03.459Z,10.60
2023-02-04T04:46:30.277Z,12.93
2023-02-04T04:48:57.011Z,9.33
2023-02-04T04:51:23.884Z,9.10
2023-02-04T04:53:50.641Z,8.57
2023-02-04T04:56:19.122Z,10.87
2023-02-04T04:58:45.886Z,9.47
2023-02-04T05:01:12.627Z,10.37
2023-02-04T05:03:39.434Z,13.63
2023-02-04T05:06:06.180Z,9.47
2023-02-04T05:08:34.174Z,9.77
2023-02-04T05:11:00.862Z,9.13
2023-02-04T05:13:27.612Z,8.17
2023-02-04T05:15:54.393Z,12.77
2023-02-04T05:18:21.110Z,12.50
2023-02-04T05:20:47.817Z,10.00
2023-02-04T05:23:14.968Z,5.67
2023-02-04T05:25:41.757Z,9.60
2023-02-04T05:28:08.739Z,11.53
2023-02-04T05:30:35.698Z,5.37
2023-02-04T05:33:02.504Z,5.07
2023-02-04T05:35:29.233Z,4.70
2023-02-04T05:37:55.956Z,5.93
2023-02-04T05:40:22.941Z,7.90
2023-02-04T05:42:49.669Z,3.73
2023-02-04T05:45:17.064Z,12.70
2023-02-04T05:47:43.807Z,7.57
2023-02-04T05:50:11.130Z,8.97
2023-02-04T05:52:37.928Z,9.97
2023-02-04T05:55:05.220Z,12.37
2023-02-04T05:57:32.387Z,11.70
2023-02-04T05:59:59.112Z,12.30
2023-02-04T06:02:25.817Z,15.03
2023-02-04T06:04:52.582Z,14.27
2023-02-04T06:07:19.399Z,10.83
2023-02-04T06:09:46.118Z,14.47
2023-02-04T06:12:12.904Z,14.63
2023-02-04T06:14:39.693Z,12.33
2023-02-04T06:17:06.362Z,17.00
2023-02-04T06:19:33.115Z,11.27
2023-02-04T06:21:59.856Z,16.77
2023-02-04T06:24:26.586Z,16.40
2023-02-04T06:26:53.293Z,15.43
2023-02-04T06:29:19.975Z,15.57
2023-02-04T06:31:47.175Z,16.13
2023-02-04T06:34:14.116Z,14.07
2023-02-04T06:36:40.891Z,12.77
2023-02-04T06:39:07.697Z,16.00
2023-02-04T06:41:34.412Z,14.83
2023-02-04T06:44:01.096Z,14.70
2023-02-04T06:46:27.889Z,16.33
2023-02-04T06:48:54.737Z,17.60
2023-02-04T06:51:21.417Z,15.83
2023-02-04T06:53:48.177Z,16.70
2023-02-04T06:56:14.876Z,18.17
2023-02-04T06:58:41.600Z,13.93
2023-02-04T07:01:08.385Z,18.20
2023-02-04T07:03:35.158Z,17.93
2023-02-04T07:06:01.856Z,18.30
2023-02-04T07:08:28.765Z,17.17
2023-02-04T07:10:55.566Z,12.53
2023-02-04T07:13:22.362Z,13.50
2023-02-04T07:15:49.810Z,17.07
2023-02-04T07:18:16.671Z,18.93
2023-02-04T07:20:43.417Z,18.27
2023-02-04T07:23:10.132Z,13.03
2023-02-04T07:25:36.891Z,16.60
2023-02-04T07:28:05.620Z,19.97
2023-02-04T07:30:33.222Z,15.03
2023-02-04T07:33:00.129Z,15.13
2023-02-04T07:35:26.905Z,18.57
2023-02-04T07:37:53.590Z,16.07
2023-02-04T07:40:21.748Z,19.40
2023-02-04T07:42:48.461Z,19.57
2023-02-04T07:45:15.186Z,17.90
2023-02-04T07:47:41.899Z,19.70
2023-02-04T07:50:08.933Z,18.80
2023-02-04T07:52:35.622Z,29.90
2023-02-04T07:55:02.359Z,16.97
2023-02-04T07:57:30.041Z,15.43
2023-02-04T07:59:56.867Z,17.67
2023-02-04T08:02:23.753Z,18.43
2023-02-04T08:04:50.595Z,18.60
2023-02-04T08:07:17.331Z,20.57
2023-02-04T08:09:43.984Z,22.43
2023-02-04T08:12:10.924Z,24.07
2023-02-04T08:14:37.685Z,22.07
2023-02-04T08:17:04.616Z,19.83
2023-02-04T08:19:31.398Z,21.13
2023-02-04T08:21:58.186Z,25.90
2023-02-04T08:24:24.938Z,23.57
2023-02-04T08:26:52.195Z,35.53
2023-02-04T08:29:18.953Z,22.43
2023-02-04T08:31:47.752Z,23.03
2023-02-04T08:34:14.581Z,23.70
2023-02-04T08:36:41.334Z,24.67
2023-02-04T08:39:08.154Z,35.20
2023-02-04T08:41:34.835Z,24.53
2023-02-04T08:44:01.605Z,25.13
2023-02-04T08:46:28.312Z,23.80
2023-02-04T08:48:55.180Z,20.77
2023-02-04T08:51:21.932Z,23.77
2023-02-04T08:53:48.705Z,22.07
2023-02-04T08:56:20.520Z,26.80
2023-02-04T08:58:50.237Z,27.93
2023-02-04T09:01:17.036Z,29.77
2023-02-04T09:03:43.797Z,30.73
2023-02-04T09:06:10.953Z,30.33
2023-02-04T09:08:38.109Z,33.80
2023-02-04T09:11:05.117Z,20.33
2023-02-04T09:13:32.803Z,24.10
2023-02-04T09:15:59.776Z,24.33
2023-02-04T09:18:26.571Z,22.87
2023-02-04T09:20:53.368Z,22.37
2023-02-04T09:23:20.404Z,19.83
2023-02-04T09:25:47.664Z,29.10
2023-02-04T09:28:17.090Z,22.57
2023-02-04T09:30:46.245Z,17.23
2023-02-04T09:33:15.063Z,28.93
2023-02-04T09:35:41.885Z,28.30
2023-02-04T09:38:09.308Z,23.63
2023-02-04T09:40:42.147Z,25.93
2023-02-04T09:43:14.713Z,26.90
2023-02-04T09:45:41.501Z,17.80
2023-02-04T09:48:13.350Z,22.87
2023-02-04T09:50:40.175Z,17.53
2023-02-04T09:53:11.130Z,27.63
2023-02-04T09:55:41.241Z,22.97
2023-02-04T09:58:22.202Z,24.30
2023-02-04T10:01:10.298Z,26.80
2023-02-04T10:03:37.178Z,18.33
2023-02-04T10:06:04.216Z,28.70
2023-02-04T10:08:33.673Z,16.27
2023-02-04T10:11:01.210Z,16.27
2023-02-04T10:13:33.711Z,23.10
2023-02-04T10:16:01.937Z,22.03
2023-02-04T10:18:32.087Z,27.77
2023-02-04T10:21:24.317Z,23.70
2023-02-04T10:23:54.715Z,27.20
2023-02-04T10:26:23.191Z,22.10
2023-02-04T10:28:49.931Z,24.27
2023-02-04T10:31:37.834Z,18.70
2023-02-04T10:34:06.041Z,18.33
2023-02-04T10:36:33.012Z,21.27
2023-02-04T10:39:05.320Z,21.17
2023-02-04T10:41:33.468Z,19.40
2023-02-04T10:44:10.266Z,20.40
2023-02-04T10:46:37.193Z,21.90
2023-02-04T10:49:22.354Z,23.57
2023-02-04T10:51:50.869Z,21.40
2023-02-04T10:54:31.457Z,18.63
2023-02-04T10:57:04.351Z,18.80
2023-02-04T10:59:31.656Z,16.00
2023-02-04T11:02:00.992Z,15.27
2023-02-04T11:04:28.829Z,18.37
2023-02-04T11:06:55.762Z,20.37
2023-02-04T11:09:22.505Z,25.10
2023-02-04T11:11:51.264Z,15.60
2023-02-04T11:14:23.700Z,17.60
2023-02-04T11:16:50.538Z,17.27
2023-02-04T11:19:33.302Z,20.20
2023-02-04T11:22:09.009Z,20.23
2023-02-04T11:24:35.941Z,16.93
2023-02-04T11:27:19.342Z,11.53
2023-02-04T11:29:47.895Z,15.77
2023-02-04T11:32:38.216Z,18.37
2023-02-04T11:35:10.784Z,19.43
2023-02-04T11:37:40.217Z,11.77
2023-02-04T11:40:27.239Z,17.60
2023-02-04T11:43:02.947Z,16.33
2023-02-04T11:45:33.135Z,17.67
2023-02-04T11:48:03.630Z,23.83
2023-02-04T11:50:33.916Z,16.07
2023-02-04T11:53:02.162Z,19.63
2023-02-04T11:55:31.043Z,15.93
2023-02-04T11:57:58.627Z,19.37
2023-02-04T12:00:29.641Z,15.33
2023-02-04T12:02:59.841Z,16.33
2023-02-04T12:05:40.762Z,18.00
2023-02-04T12:08:25.714Z,14.03
2023-02-04T12:11:05.364Z,16.57
2023-02-04T12:13:33.185Z,20.17
2023-02-04T12:16:02.815Z,17.20
2023-02-04T12:18:30.587Z,15.40
2023-02-04T12:20:58.431Z,24.30
2023-02-04T12:23:26.500Z,18.73
2023-02-04T12:25:53.716Z,15.53
2023-02-04T12:28:20.787Z,16.37
2023-02-04T12:30:47.568Z,17.10
2023-02-04T12:33:15.116Z,16.00
2023-02-04T12:35:42.344Z,16.87
2023-02-04T12:38:10.240Z,19.37
2023-02-04T12:40:37.393Z,15.10
2023-02-04T12:43:04.308Z,16.43
2023-02-04T12:45:31.604Z,20.77
2023-02-04T12:47:58.726Z,16.10
2023-02-04T12:50:26.251Z,16.10
2023-02-04T12:52:57.986Z,15.67
2023-02-04T12:55:27.917Z,15.63
2023-02-04T12:57:56.288Z,20.60
2023-02-04T13:00:23.293Z,14.60
2023-02-04T13:02:50.211Z,12.50
2023-02-04T13:05:17.484Z,15.40
2023-02-04T13:07:44.251Z,11.70
2023-02-04T13:10:11.857Z,11.73
2023-02-04T13:12:38.681Z,13.90
2023-02-04T13:15:06.356Z,12.87
2023-02-04T13:17:33.810Z,9.83
2023-02-04T13:20:00.743Z,16.90
2023-02-04T13:22:27.812Z,17.57
2023-02-04T13:24:54.587Z,13.07
2023-02-04T13:27:21.412Z,12.93
2023-02-04T13:29:48.221Z,15.23
2023-02-04T13:32:14.933Z,10.83
2023-02-04T13:34:41.775Z,18.50
2023-02-04T13:37:08.568Z,8.50
2023-02-04T13:39:35.269Z,14.07
2023-02-04T13:42:04.159Z,14.33
2023-02-04T13:44:31.188Z,11.23
2023-02-04T13:46:57.993Z,13.77
2023-02-04T13:49:24.817Z,9.93
2023-02-04T13:51:51.529Z,10.23
2023-02-04T13:54:18.279Z,9.37
2023-02-04T13:56:45.186Z,13.13
2023-02-04T13:59:11.908Z,15.23
2023-02-04T14:01:39.083Z,13.10
2023-02-04T14:04:05.840Z,12.87
2023-02-04T14:06:38.184Z,13.20
2023-02-04T14:09:05.295Z,15.40
2023-02-04T14:11:32.060Z,16.13
2023-02-04T14:13:58.777Z,19.57
2023-02-04T14:16:25.594Z,12.77
2023-02-04T14:18:52.391Z,13.00
2023-02-04T14:21:19.166Z,6.23
2023-02-04T14:23:45.911Z,7.53
2023-02-04T14:26:12.660Z,11.57
2023-02-04T14:28:39.352Z,9.90
2023-02-04T14:31:06.205Z,16.20
2023-02-04T14:33:33.172Z,10.90
2023-02-04T14:36:00.585Z,11.27
2023-02-04T14:38:30.969Z,17.27
2023-02-04T14:41:00.905Z,13.50
2023-02-04T14:43:27.713Z,12.07
2023-02-04T14:45:54.526Z,14.53
2023-02-04T14:48:21.412Z,10.20
2023-02-04T14:50:48.228Z,13.53
2023-02-04T14:53:14.970Z,13.93
2023-02-04T14:55:41.728Z,11.97
2023-02-04T14:58:08.597Z,13.40
2023-02-04T15:00:35.655Z,11.40
2023-02-04T15:03:02.445Z,12.77
2023-02-04T15:05:29.317Z,13.33
2023-02-04T15:07:56.109Z,13.37
2023-02-04T15:10:24.534Z,12.80
2023-02-04T15:12:51.846Z,9.67
2023-02-04T15:15:18.885Z,15.77
2023-02-04T15:17:45.670Z,19.80
2023-02-04T15:20:13.310Z,7.80
2023-02-04T15:22:40.070Z,13.27
2023-02-04T15:25:06.947Z,14.17
2023-02-04T15:27:33.756Z,12.03
2023-02-04T15:30:00.567Z,10.30
2023-02-04T15:32:27.310Z,14.17
2023-02-04T15:34:53.970Z,12.50
2023-02-04T15:37:20.729Z,14.80
2023-02-04T15:39:47.509Z,13.53
2023-02-04T15:42:14.838Z,10.17
2023-02-04T15:44:41.542Z,9.87
2023-02-04T15:47:08.293Z,13.20
2023-02-04T15:49:35.161Z,10.67
2023-02-04T15:52:02.440Z,12.27
2023-02-04T15:54:29.752Z,11.57
2023-02-04T15:56:56.461Z,10.67
2023-02-04T15:59:23.329Z,9.07
2023-02-04T16:01:50.750Z,10.70
2023-02-04T16:04:19.799Z,14.33
2023-02-04T16:06:57.905Z,15.37
2023-02-04T16:09:25.690Z,14.10
2023-02-04T16:11:52.393Z,10.80
2023-02-04T16:14:19.103Z,10.03
2023-02-04T16:16:45.830Z,11.57
2023-02-04T16:19:12.583Z,13.07
2023-02-04T16:21:39.329Z,15.10
2023-02-04T16:24:06.391Z,16.27
2023-02-04T16:26:33.151Z,11.87
2023-02-04T16:28:59.899Z,11.77
2023-02-04T16:31:26.771Z,11.93
2023-02-04T16:33:53.601Z,9.77
2023-02-04T16:36:20.370Z,10.87
2023-02-04T16:38:47.244Z,15.17
2023-02-04T16:41:14.366Z,17.10
2023-02-04T16:43:41.287Z,10.53
2023-02-04T16:46:08.190Z,11.03
2023-02-04T16:48:36.453Z,13.33
2023-02-04T16:51:03.616Z,12.43
2023-02-04T16:53:30.429Z,15.37
2023-02-04T16:55:57.182Z,11.20
2023-02-04T16:58:24.096Z,10.07
2023-02-04T17:00:50.953Z,12.10
2023-02-04T17:03:17.882Z,12.53
2023-02-04T17:05:44.815Z,11.17
2023-02-04T17:08:13.546Z,16.43
2023-02-04T17:10:59.726Z,18.30
2023-02-04T17:13:26.411Z,13.50
2023-02-04T17:15:59.223Z,15.13
2023-02-04T17:18:30.011Z,18.07
2023-02-04T17:20:57.994Z,18.17
2023-02-04T17:23:25.622Z,13.20
2023-02-04T17:25:52.744Z,26.73
2023-02-04T17:28:19.510Z,18.03
2023-02-04T17:30:46.592Z,14.10
2023-02-04T17:33:13.498Z,14.47
2023-02-04T17:35:40.204Z,14.27
2023-02-04T17:38:06.912Z,12.70
2023-02-04T17:40:33.598Z,15.83
2023-02-04T17:43:00.416Z,13.33
2023-02-04T17:45:27.387Z,11.20
2023-02-04T17:47:54.076Z,13.53
2023-02-04T17:50:20.899Z,18.40
2023-02-04T17:52:47.642Z,11.13
2023-02-04T17:55:25.374Z,16.07
2023-02-04T17:57:52.132Z,12.40
2023-02-04T18:00:21.178Z,18.20
2023-02-04T18:02:50.080Z,14.23
2023-02-04T18:05:22.800Z,17.33
2023-02-04T18:08:05.852Z,19.00
2023-02-04T18:10:35.958Z,19.53
2023-02-04T18:13:12.862Z,16.13
2023-02-04T18:15:39.724Z,18.43
2023-02-04T18:18:26.901Z,15.20
2023-02-04T18:21:00.280Z,19.50
2023-02-04T18:23:30.378Z,20.40
2023-02-04T18:26:20.511Z,13.13
2023-02-04T18:28:49.071Z,16.97
2023-02-04T18:31:40.104Z,15.50
2023-02-04T18:34:21.274Z,17.73
2023-02-04T18:36:48.438Z,13.63
2023-02-04T18:39:26.912Z,16.73
2023-02-04T18:41:54.382Z,21.00
2023-02-04T18:44:35.288Z,17.00
2023-02-04T18:47:24.732Z,15.13
2023-02-04T18:49:51.693Z,18.83
2023-02-04T18:52:20.459Z,12.70
2023-02-04T18:54:56.467Z,14.77
2023-02-04T18:57:35.710Z,17.23
2023-02-04T19:00:13.548Z,16.90
2023-02-04T19:02:53.788Z,17.00
2023-02-04T19:05:34.419Z,20.77
2023-02-04T19:08:04.213Z,15.40
2023-02-04T19:10:37.165Z,20.67
2023-02-04T19:13:22.244Z,21.60
2023-02-04T19:16:15.984Z,14.83
2023-02-04T19:18:43.299Z,16.43
2023-02-04T19:21:17.996Z,14.83
2023-02-04T19:23:44.812Z,25.33
2023-02-04T19:26:46.697Z,16.77
2023-02-04T19:29:22.272Z,14.83
2023-02-04T19:31:50.090Z,14.63
2023-02-04T19:34:22.686Z,17.93
2023-02-04T19:36:49.427Z,26.00
2023-02-04T19:39:30.635Z,20.47
2023-02-04T19:41:58.132Z,16.10
2023-02-04T19:44:34.932Z,18.60
2023-02-04T19:47:21.891Z,23.03
2023-02-04T19:49:48.720Z,23.00
2023-02-04T19:52:32.137Z,16.17
2023-02-04T19:55:17.436Z,17.60
2023-02-04T19:57:46.067Z,20.77
2023-02-04T20:00:28.194Z,19.67
2023-02-04T20:02:56.934Z,13.83
2023-02-04T20:05:24.341Z,15.33
2023-02-04T20:07:51.119Z,15.70
2023-02-04T20:10:25.528Z,15.60
2023-02-04T20:13:18.038Z,16.87
2023-02-04T20:15:44.843Z,16.90
2023-02-04T20:18:20.368Z,21.17
2023-02-04T20:20:47.212Z,21.40
2023-02-04T20:23:33.098Z,18.33
2023-02-04T20:26:01.160Z,16.87
2023-02-04T20:28:33.639Z,14.40
2023-02-04T20:31:01.634Z,21.77
2023-02-04T20:33:48.568Z,16.43
2023-02-04T20:36:33.173Z,22.27
2023-02-04T20:39:36.702Z,22.63
2023-02-04T20:42:21.385Z,15.67
2023-02-04T20:44:48.233Z,22.13
2023-02-04T20:47:35.080Z,24.20
2023-02-04T20:50:01.878Z,19.00
2023-02-04T20:53:03.670Z,17.90
2023-02-04T20:55:33.303Z,21.10
2023-02-04T20:58:16.031Z,17.57
2023-02-04T21:00:43.969Z,19.97
2023-02-04T21:03:13.514Z,18.13
2023-02-04T21:05:40.562Z,20.47
2023-02-04T21:08:30.013Z,19.57
2023-02-04T21:10:58.055Z,22.10
2023-02-04T21:13:25.035Z,19.90
2023-02-04T21:15:52.713Z,23.03
2023-02-04T21:18:20.018Z,25.40
2023-02-04T21:20:46.708Z,28.10
2023-02-04T21:23:13.466Z,20.23
2023-02-04T21:25:40.281Z,23.90
2023-02-04T21:28:07.267Z,25.83
2023-02-04T21:30:34.144Z,23.50
2023-02-04T21:33:02.001Z,20.03
2023-02-04T21:35:29.281Z,21.70
2023-02-04T21:38:00.072Z,20.33
2023-02-04T21:40:27.351Z,22.13
2023-02-04T21:42:54.429Z,19.60
2023-02-04T21:45:23.613Z,20.20
2023-02-04T21:47:51.538Z,23.87
2023-02-04T21:50:20.817Z,26.57
2023-02-04T21:52:47.760Z,27.80
2023-02-04T21:55:17.137Z,21.80
2023-02-04T21:57:43.820Z,23.70
2023-02-04T22:00:11.914Z,24.37
2023-02-04T22:02:38.740Z,25.53
2023-02-04T22:05:07.835Z,24.13
2023-02-04T22:07:35.719Z,28.57
2023-02-04T22:10:05.451Z,23.37
2023-02-04T22:12:32.588Z,24.50
2023-02-04T22:15:18.051Z,25.33
2023-02-04T22:17:45.476Z,22.27
2023-02-04T22:20:15.605Z,24.20
2023-02-04T22:22:44.641Z,18.57
2023-02-04T22:25:12.984Z,28.53
2023-02-04T22:27:39.968Z,26.73
2023-02-04T22:30:08.115Z,21.20
2023-02-04T22:32:34.892Z,21.97
2023-02-04T22:35:01.646Z,29.07
2023-02-04T22:37:28.366Z,27.77
2023-02-04T22:39:55.068Z,29.97
2023-02-04T22:42:21.842Z,30.27
2023-02-04T22:44:48.653Z,27.13
2023-02-04T22:47:15.480Z,27.40
2023-02-04T22:49:42.216Z,29.33
2023-02-04T22:52:09.100Z,28.37
2023-02-04T22:54:37.741Z,27.67
2023-02-04T22:57:04.557Z,28.27
2023-02-04T22:59:31.278Z,31.70
2023-02-04T23:01:58.067Z,26.10
2023-02-04T23:04:24.852Z,33.37
2023-02-04T23:06:52.425Z,32.27
2023-02-04T23:09:19.692Z,32.60
2023-02-04T23:11:46.630Z,37.00
2023-02-04T23:14:13.554Z,31.30
2023-02-04T23:16:40.351Z,30.63
2023-02-04T23:19:07.110Z,35.27
2023-02-04T23:21:34.116Z,35.53
2023-02-04T23:24:01.000Z,35.43
2023-02-04T23:26:27.800Z,34.43
2023-02-04T23:28:54.562Z,35.37
2023-02-04T23:31:21.346Z,37.77
2023-02-04T23:33:48.095Z,35.60
2023-02-04T23:36:14.802Z,34.30
2023-02-04T23:38:41.536Z,47.30
2023-02-04T23:41:08.512Z,42.13
2023-02-04T23:43:35.215Z,37.83
2023-02-04T23:46:02.188Z,40.40
2023-02-04T23:48:28.924Z,36.90
2023-02-04T23:50:57.999Z,39.97
2023-02-04T23:53:25.309Z,46.03
2023-02-04T23:55:52.118Z,41.70
2023-02-04T23:58:19.327Z,41.73
